• Join FlightAware (Why Join?)
  • Login
  • US Flag 
01:02AM EDT


 

Airport Tracker/Info


-or-


 

Live Flight TrackerFlight Track Log ✈ N978AC ✈ 18-Nov-2013 ✈ KVRB - KPBI

Flight Track Log - Related Links

Times and Time Zones

All times are in EST time to prevent confusion due to time zone crossing. See the N978AC flight status page for this flight to view local times or setup timezone preferences in your user account.

Time Position Orientation Groundspeed Altitude Reporting Facility
EST Latitude Longitude Course Direction KTS MPH feet Rate Location/Type
12:19PM 27.6514 -80.4931 178° South 95 109 1,900  Level Miami Center
12:20PM 27.6486 -80.5211 264° West 88 101 2,500 540 Climbing Miami Center
12:21PM 27.6458 -80.5467 263° West 88 101 3,000 300 Climbing Miami Center
12:22PM 27.6431 -80.5769 264° West 88 101 3,200 300 Climbing Miami Center
12:23PM 27.4692 -80.4110 178° South  Level FlightAware Approximate
12:23PM 27.6383 -80.6028 258° West 93 107 3,700  Level Miami Center
12:24PM 27.4382 -80.4099 178° South  Level FlightAware Approximate
12:24PM 27.6253 -80.6211 231° Southwest 88 101 4,000  Level Miami Center
12:25PM 27.5917 -80.6222 182° South 96 110 4,100  Climbing Miami Center
12:26PM 27.5625 -80.6258 186° South 109 125 4,000  Descending Miami Center
12:27PM 27.5311 -80.6250 179° South 109 125 4,100  Climbing Miami Center
12:28PM 27.5061 -80.6264 183° South 109 125 4,100 -60 Level Miami Center
12:29PM 27.4747 -80.6278 182° South 109 125 4,000  Descending Miami Center
12:30PM 27.4433 -80.6361 193° South 109 125 4,100  Climbing Miami Center
12:31PM 27.4139 -80.6375 182° South 109 125 4,100  Level Miami Center
12:32PM 27.3867 -80.6436 191° South 104 120 4,100  Level Miami Center
12:33PM 27.3594 -80.6475 187° South 104 120 4,100 -60 Level Miami Center
12:34PM 27.3322 -80.6511 187° South 104 120 4,000  Descending Miami Center
12:35PM 27.3008 -80.6547 186° South 104 120 4,100  Climbing Miami Center
12:36PM 27.2694 -80.6561 182° South 104 120 4,100  Level Miami Center
12:37PM 27.2400 -80.6575 182° South 104 120 4,100  Level Miami Center
12:38PM 27.2108 -80.6564 178° South 104 120 4,100  Level Miami Center
12:39PM 27.1794 -80.6578 182° South 104 120 4,100  Level Miami Center
12:40PM 27.1461 -80.6567 178° South 110 127 4,100  Level Miami Center
12:41PM 27.1169 -80.6606 187° South 110 127 4,100  Level Miami Center
12:42PM 27.0856 -80.6617 182° South 110 127 4,100  Level Miami Center
12:43PM 27.0603 -80.6681 193° South 110 127 4,100 -60 Level Miami Center
12:44PM 27.0269 -80.6669 178° South 105 121 4,000 -120 Descending Miami Center
12:46PM 26.9860 -80.6695 183° South  Level FlightAware Approximate
12:53PM 26.8014 -80.6812 183° South  Level FlightAware Approximate
12:54PM 26.7750 -80.6828 183° South  Level FlightAware Approximate
12:55PM 26.7640 -80.6632 99° East  Level FlightAware Approximate
12:56PM 26.7600 -80.6340 99° East  Level FlightAware Approximate
12:57PM 26.7560 -80.6047 99° East  Level FlightAware Approximate
12:58PM 26.7521 -80.5754 99° East  Level FlightAware Approximate
12:59PM 26.7481 -80.5462 99° East  Level FlightAware Approximate
01:00PM 26.7441 -80.5169 99° East  Level FlightAware Approximate
01:01PM 26.7401 -80.4877 99° East  Level FlightAware Approximate
01:02PM 26.7361 -80.4584 99° East  Level FlightAware Approximate
01:03PM 26.7321 -80.4292 99° East  Level FlightAware Approximate